sensor_id;sensor_type;location;lat;lon;timestamp;temperature;humidity
14993;DHT22;7592;51.088;13.732;2023-06-26T00:02:18;19.10;99.90
14993;DHT22;7592;51.088;13.732;2023-06-26T00:07:10;19.00;99.90
14993;DHT22;7592;51.088;13.732;2023-06-26T00:12:03;19.00;99.90
14993;DHT22;7592;51.088;13.732;2023-06-26T00:16:55;18.90;99.90
14993;DHT22;7592;51.088;13.732;2023-06-26T00:21:47;18.80;99.90
14993;DHT22;7592;51.088;13.732;2023-06-26T00:26:40;18.70;99.90
14993;DHT22;7592;51.088;13.732;2023-06-26T00:31:32;18.60;99.90
14993;DHT22;7592;51.088;13.732;2023-06-26T00:36:26;18.50;99.90
14993;DHT22;7592;51.088;13.732;2023-06-26T00:41:18;18.50;99.90
14993;DHT22;7592;51.088;13.732;2023-06-26T00:46:13;18.40;99.90
14993;DHT22;7592;51.088;13.732;2023-06-26T00:51:05;18.30;99.90
14993;DHT22;7592;51.088;13.732;2023-06-26T00:55:59;18.30;99.90
14993;DHT22;7592;51.088;13.732;2023-06-26T01:00:53;18.20;99.90
14993;DHT22;7592;51.088;13.732;2023-06-26T01:12:55;18.10;99.90
14993;DHT22;7592;51.088;13.732;2023-06-26T01:17:47;18.00;99.90
14993;DHT22;7592;51.088;13.732;2023-06-26T01:27:38;17.90;99.90
14993;DHT22;7592;51.088;13.732;2023-06-26T01:32:31;17.80;99.90
14993;DHT22;7592;51.088;13.732;2023-06-26T01:37:27;17.80;99.90
14993;DHT22;7592;51.088;13.732;2023-06-26T01:42:20;17.70;99.90
14993;DHT22;7592;51.088;13.732;2023-06-26T01:47:16;17.70;99.90
14993;DHT22;7592;51.088;13.732;2023-06-26T01:52:27;17.70;99.90
14993;DHT22;7592;51.088;13.732;2023-06-26T01:57:21;17.60;99.90
14993;DHT22;7592;51.088;13.732;2023-06-26T02:02:16;17.50;99.90
14993;DHT22;7592;51.088;13.732;2023-06-26T02:07:09;17.50;99.90
14993;DHT22;7592;51.088;13.732;2023-06-26T02:12:01;17.40;99.90
14993;DHT22;7592;51.088;13.732;2023-06-26T02:16:54;17.40;99.90
14993;DHT22;7592;51.088;13.732;2023-06-26T02:21:46;17.40;99.90
14993;DHT22;7592;51.088;13.732;2023-06-26T02:26:38;17.30;99.90
14993;DHT22;7592;51.088;13.732;2023-06-26T02:31:30;17.30;99.90
14993;DHT22;7592;51.088;13.732;2023-06-26T02:36:22;17.30;99.90
14993;DHT22;7592;51.088;13.732;2023-06-26T02:41:14;17.20;99.90
14993;DHT22;7592;51.088;13.732;2023-06-26T02:46:07;17.30;99.90
14993;DHT22;7592;51.088;13.732;2023-06-26T02:50:59;17.30;99.90
14993;DHT22;7592;51.088;13.732;2023-06-26T02:55:54;17.20;99.90
14993;DHT22;7592;51.088;13.732;2023-06-26T03:00:46;17.30;99.90
14993;DHT22;7592;51.088;13.732;2023-06-26T03:05:41;17.20;99.90
14993;DHT22;7592;51.088;13.732;2023-06-26T03:10:34;17.30;99.90
14993;DHT22;7592;51.088;13.732;2023-06-26T03:15:26;17.30;99.90
14993;DHT22;7592;51.088;13.732;2023-06-26T03:20:19;17.30;99.90
14993;DHT22;7592;51.088;13.732;2023-06-26T03:25:14;17.40;99.90
14993;DHT22;7592;51.088;13.732;2023-06-26T03:30:07;17.50;99.90
14993;DHT22;7592;51.088;13.732;2023-06-26T03:35:04;17.60;99.90
14993;DHT22;7592;51.088;13.732;2023-06-26T03:39:58;17.60;99.90
14993;DHT22;7592;51.088;13.732;2023-06-26T03:44:51;17.80;99.90
14993;DHT22;7592;51.088;13.732;2023-06-26T03:49:43;17.90;99.90
14993;DHT22;7592;51.088;13.732;2023-06-26T03:54:36;18.10;99.90
14993;DHT22;7592;51.088;13.732;2023-06-26T03:59:28;18.20;99.90
14993;DHT22;7592;51.088;13.732;2023-06-26T04:04:20;18.30;99.90
14993;DHT22;7592;51.088;13.732;2023-06-26T04:09:13;18.40;99.90
14993;DHT22;7592;51.088;13.732;2023-06-26T04:14:05;18.60;99.90
14993;DHT22;7592;51.088;13.732;2023-06-26T04:18:57;18.80;99.90
14993;DHT22;7592;51.088;13.732;2023-06-26T04:23:50;18.90;99.90
14993;DHT22;7592;51.088;13.732;2023-06-26T04:28:42;19.20;99.90
14993;DHT22;7592;51.088;13.732;2023-06-26T04:33:35;22.90;99.90
14993;DHT22;7592;51.088;13.732;2023-06-26T04:38:33;28.00;99.90
14993;DHT22;7592;51.088;13.732;2023-06-26T04:43:26;31.30;99.40
14993;DHT22;7592;51.088;13.732;2023-06-26T04:48:18;33.50;88.70
14993;DHT22;7592;51.088;13.732;2023-06-26T04:53:10;34.60;78.40
14993;DHT22;7592;51.088;13.732;2023-06-26T04:58:02;35.80;71.50
14993;DHT22;7592;51.088;13.732;2023-06-26T05:02:54;37.20;65.40
14993;DHT22;7592;51.088;13.732;2023-06-26T05:07:54;37.40;62.70
14993;DHT22;7592;51.088;13.732;2023-06-26T05:12:46;38.60;59.30
14993;DHT22;7592;51.088;13.732;2023-06-26T05:17:38;39.30;57.80
14993;DHT22;7592;51.088;13.732;2023-06-26T05:22:32;40.60;55.50
14993;DHT22;7592;51.088;13.732;2023-06-26T05:27:26;41.00;53.20
14993;DHT22;7592;51.088;13.732;2023-06-26T05:32:18;40.50;53.00
14993;DHT22;7592;51.088;13.732;2023-06-26T05:37:14;40.60;52.80
14993;DHT22;7592;51.088;13.732;2023-06-26T05:42:09;41.70;51.80
14993;DHT22;7592;51.088;13.732;2023-06-26T05:47:02;43.10;49.40
14993;DHT22;7592;51.088;13.732;2023-06-26T05:51:54;43.00;48.90
14993;DHT22;7592;51.088;13.732;2023-06-26T05:56:48;43.30;49.00
14993;DHT22;7592;51.088;13.732;2023-06-26T06:01:40;43.10;47.80
14993;DHT22;7592;51.088;13.732;2023-06-26T06:06:32;41.10;49.90
14993;DHT22;7592;51.088;13.732;2023-06-26T06:11:24;41.90;49.60
14993;DHT22;7592;51.088;13.732;2023-06-26T06:16:17;43.20;48.40
14993;DHT22;7592;51.088;13.732;2023-06-26T06:21:09;44.50;47.10
14993;DHT22;7592;51.088;13.732;2023-06-26T06:26:01;45.50;46.50
14993;DHT22;7592;51.088;13.732;2023-06-26T06:30:53;46.60;44.30
14993;DHT22;7592;51.088;13.732;2023-06-26T06:35:45;46.20;44.20
14993;DHT22;7592;51.088;13.732;2023-06-26T06:40:38;45.60;44.00
14993;DHT22;7592;51.088;13.732;2023-06-26T06:45:30;44.80;45.30
14993;DHT22;7592;51.088;13.732;2023-06-26T06:50:23;43.10;46.80
14993;DHT22;7592;51.088;13.732;2023-06-26T06:55:15;43.30;46.50
14993;DHT22;7592;51.088;13.732;2023-06-26T07:00:11;44.50;46.00
14993;DHT22;7592;51.088;13.732;2023-06-26T07:05:04;44.80;45.10
14993;DHT22;7592;51.088;13.732;2023-06-26T07:09:59;44.90;44.70
14993;DHT22;7592;51.088;13.732;2023-06-26T07:14:51;43.20;46.40
14993;DHT22;7592;51.088;13.732;2023-06-26T07:19:44;44.10;45.60
14993;DHT22;7592;51.088;13.732;2023-06-26T07:24:36;45.20;45.70
14993;DHT22;7592;51.088;13.732;2023-06-26T07:29:28;46.60;44.20
14993;DHT22;7592;51.088;13.732;2023-06-26T07:34:20;46.40;43.40
14993;DHT22;7592;51.088;13.732;2023-06-26T07:39:13;47.20;42.50
14993;DHT22;7592;51.088;13.732;2023-06-26T07:44:12;47.30;42.70
14993;DHT22;7592;51.088;13.732;2023-06-26T07:49:04;47.60;42.60
14993;DHT22;7592;51.088;13.732;2023-06-26T07:53:56;47.40;43.00
14993;DHT22;7592;51.088;13.732;2023-06-26T07:58:49;47.30;42.90
14993;DHT22;7592;51.088;13.732;2023-06-26T08:03:41;47.40;42.30
14993;DHT22;7592;51.088;13.732;2023-06-26T08:08:34;46.30;43.40
14993;DHT22;7592;51.088;13.732;2023-06-26T08:13:27;46.50;42.40
14993;DHT22;7592;51.088;13.732;2023-06-26T08:18:20;45.10;43.50
14993;DHT22;7592;51.088;13.732;2023-06-26T08:23:14;46.20;42.40
14993;DHT22;7592;51.088;13.732;2023-06-26T08:28:06;47.30;42.10
14993;DHT22;7592;51.088;13.732;2023-06-26T08:32:59;47.20;41.00
14993;DHT22;7592;51.088;13.732;2023-06-26T08:37:51;47.40;40.80
14993;DHT22;7592;51.088;13.732;2023-06-26T08:42:43;48.20;40.30
14993;DHT22;7592;51.088;13.732;2023-06-26T08:47:37;48.30;40.10
14993;DHT22;7592;51.088;13.732;2023-06-26T08:52:43;49.70;39.80
14993;DHT22;7592;51.088;13.732;2023-06-26T08:57:36;50.80;38.70
14993;DHT22;7592;51.088;13.732;2023-06-26T09:02:29;51.10;38.20
14993;DHT22;7592;51.088;13.732;2023-06-26T09:07:21;50.70;37.40
14993;DHT22;7592;51.088;13.732;2023-06-26T09:12:15;51.40;37.60
14993;DHT22;7592;51.088;13.732;2023-06-26T09:17:08;51.70;37.00
14993;DHT22;7592;51.088;13.732;2023-06-26T09:22:00;51.80;36.50
14993;DHT22;7592;51.088;13.732;2023-06-26T09:26:53;51.00;36.60
14993;DHT22;7592;51.088;13.732;2023-06-26T09:31:45;51.80;36.80
14993;DHT22;7592;51.088;13.732;2023-06-26T09:36:38;49.90;38.20
14993;DHT22;7592;51.088;13.732;2023-06-26T09:41:31;50.70;36.90
14993;DHT22;7592;51.088;13.732;2023-06-26T09:46:24;50.70;38.20
14993;DHT22;7592;51.088;13.732;2023-06-26T09:51:22;51.40;36.50
14993;DHT22;7592;51.088;13.732;2023-06-26T09:56:17;50.80;37.00
14993;DHT22;7592;51.088;13.732;2023-06-26T10:01:10;49.10;36.20
14993;DHT22;7592;51.088;13.732;2023-06-26T10:06:02;49.00;36.00
14993;DHT22;7592;51.088;13.732;2023-06-26T10:10:57;49.20;36.30
14993;DHT22;7592;51.088;13.732;2023-06-26T10:15:50;50.10;36.90
14993;DHT22;7592;51.088;13.732;2023-06-26T10:20:48;51.20;36.30
14993;DHT22;7592;51.088;13.732;2023-06-26T10:25:42;52.10;34.80
14993;DHT22;7592;51.088;13.732;2023-06-26T10:30:36;52.30;34.20
14993;DHT22;7592;51.088;13.732;2023-06-26T10:35:30;50.50;35.40
14993;DHT22;7592;51.088;13.732;2023-06-26T10:40:27;49.90;36.50
14993;DHT22;7592;51.088;13.732;2023-06-26T10:45:21;50.70;36.10
14993;DHT22;7592;51.088;13.732;2023-06-26T10:55:14;50.70;36.20
14993;DHT22;7592;51.088;13.732;2023-06-26T11:00:11;49.80;35.60
14993;DHT22;7592;51.088;13.732;2023-06-26T11:05:06;50.10;36.40
14993;DHT22;7592;51.088;13.732;2023-06-26T11:10:02;50.10;36.60
14993;DHT22;7592;51.088;13.732;2023-06-26T11:15:00;50.10;36.60
14993;DHT22;7592;51.088;13.732;2023-06-26T11:19:53;49.30;36.10
14993;DHT22;7592;51.088;13.732;2023-06-26T11:24:46;49.90;35.60
14993;DHT22;7592;51.088;13.732;2023-06-26T11:29:47;49.10;35.90
14993;DHT22;7592;51.088;13.732;2023-06-26T11:34:39;46.90;37.30
14993;DHT22;7592;51.088;13.732;2023-06-26T11:39:33;43.40;40.40
14993;DHT22;7592;51.088;13.732;2023-06-26T11:44:29;40.70;43.70
14993;DHT22;7592;51.088;13.732;2023-06-26T11:49:23;39.20;44.60
14993;DHT22;7592;51.088;13.732;2023-06-26T11:54:26;37.90;46.70
14993;DHT22;7592;51.088;13.732;2023-06-26T11:59:19;37.20;47.50
14993;DHT22;7592;51.088;13.732;2023-06-26T12:04:12;36.60;48.00
14993;DHT22;7592;51.088;13.732;2023-06-26T12:09:07;36.40;48.40
14993;DHT22;7592;51.088;13.732;2023-06-26T12:14:01;36.00;49.30
14993;DHT22;7592;51.088;13.732;2023-06-26T12:19:01;36.10;50.10
14993;DHT22;7592;51.088;13.732;2023-06-26T12:24:00;35.90;49.80
14993;DHT22;7592;51.088;13.732;2023-06-26T12:29:14;36.00;50.00
14993;DHT22;7592;51.088;13.732;2023-06-26T12:34:14;35.90;49.60
14993;DHT22;7592;51.088;13.732;2023-06-26T12:39:10;35.80;49.00
14993;DHT22;7592;51.088;13.732;2023-06-26T12:44:05;35.70;49.20
14993;DHT22;7592;51.088;13.732;2023-06-26T12:49:07;35.70;48.50
14993;DHT22;7592;51.088;13.732;2023-06-26T12:54:20;35.60;50.30
14993;DHT22;7592;51.088;13.732;2023-06-26T12:59:12;35.30;50.40
14993;DHT22;7592;51.088;13.732;2023-06-26T13:04:05;35.30;50.70
14993;DHT22;7592;51.088;13.732;2023-06-26T13:08:58;35.20;50.80
14993;DHT22;7592;51.088;13.732;2023-06-26T13:13:50;35.30;50.40
14993;DHT22;7592;51.088;13.732;2023-06-26T13:19:01;35.10;51.00
14993;DHT22;7592;51.088;13.732;2023-06-26T13:23:54;34.90;51.70
14993;DHT22;7592;51.088;13.732;2023-06-26T13:28:48;34.90;51.00
14993;DHT22;7592;51.088;13.732;2023-06-26T13:33:40;34.80;51.80
14993;DHT22;7592;51.088;13.732;2023-06-26T13:38:33;34.80;51.60
14993;DHT22;7592;51.088;13.732;2023-06-26T13:43:27;34.60;50.20
14993;DHT22;7592;51.088;13.732;2023-06-26T13:48:20;34.50;51.00
14993;DHT22;7592;51.088;13.732;2023-06-26T13:53:12;34.30;51.50
14993;DHT22;7592;51.088;13.732;2023-06-26T13:58:05;34.20;52.40
14993;DHT22;7592;51.088;13.732;2023-06-26T14:02:58;34.10;51.00
14993;DHT22;7592;51.088;13.732;2023-06-26T14:07:51;34.00;50.90
14993;DHT22;7592;51.088;13.732;2023-06-26T14:12:43;33.70;51.60
14993;DHT22;7592;51.088;13.732;2023-06-26T14:17:35;33.60;50.10
14993;DHT22;7592;51.088;13.732;2023-06-26T14:22:27;33.60;50.60
14993;DHT22;7592;51.088;13.732;2023-06-26T14:27:19;33.60;50.10
14993;DHT22;7592;51.088;13.732;2023-06-26T14:32:12;33.20;50.80
14993;DHT22;7592;51.088;13.732;2023-06-26T14:37:04;32.90;52.40
14993;DHT22;7592;51.088;13.732;2023-06-26T14:41:57;32.70;52.30
14993;DHT22;7592;51.088;13.732;2023-06-26T14:46:49;32.90;52.50
14993;DHT22;7592;51.088;13.732;2023-06-26T14:51:42;33.20;52.70
14993;DHT22;7592;51.088;13.732;2023-06-26T14:56:34;33.50;52.10
14993;DHT22;7592;51.088;13.732;2023-06-26T15:01:26;33.50;52.00
14993;DHT22;7592;51.088;13.732;2023-06-26T15:06:18;33.50;51.30
14993;DHT22;7592;51.088;13.732;2023-06-26T15:11:11;33.50;50.90
14993;DHT22;7592;51.088;13.732;2023-06-26T15:16:03;33.50;50.70
14993;DHT22;7592;51.088;13.732;2023-06-26T15:20:55;33.40;51.20
14993;DHT22;7592;51.088;13.732;2023-06-26T15:25:47;33.30;50.20
14993;DHT22;7592;51.088;13.732;2023-06-26T15:30:39;33.10;51.40
14993;DHT22;7592;51.088;13.732;2023-06-26T15:35:32;33.00;53.10
14993;DHT22;7592;51.088;13.732;2023-06-26T15:40:24;32.90;53.00
14993;DHT22;7592;51.088;13.732;2023-06-26T15:45:17;32.90;53.40
14993;DHT22;7592;51.088;13.732;2023-06-26T15:50:17;32.90;53.50
14993;DHT22;7592;51.088;13.732;2023-06-26T15:55:10;33.00;53.20
14993;DHT22;7592;51.088;13.732;2023-06-26T16:00:03;32.90;53.20
14993;DHT22;7592;51.088;13.732;2023-06-26T16:05:04;32.60;52.50
14993;DHT22;7592;51.088;13.732;2023-06-26T16:09:57;32.30;53.40
14993;DHT22;7592;51.088;13.732;2023-06-26T16:14:49;32.10;54.80
14993;DHT22;7592;51.088;13.732;2023-06-26T16:19:42;31.70;57.20
14993;DHT22;7592;51.088;13.732;2023-06-26T16:24:34;31.10;61.80
14993;DHT22;7592;51.088;13.732;2023-06-26T16:29:27;30.40;66.00
14993;DHT22;7592;51.088;13.732;2023-06-26T16:34:19;29.40;74.30
14993;DHT22;7592;51.088;13.732;2023-06-26T16:39:11;28.20;84.40
14993;DHT22;7592;51.088;13.732;2023-06-26T16:44:07;27.10;99.90
14993;DHT22;7592;51.088;13.732;2023-06-26T16:48:59;26.10;99.90
14993;DHT22;7592;51.088;13.732;2023-06-26T16:53:51;25.50;99.90
14993;DHT22;7592;51.088;13.732;2023-06-26T16:58:43;25.00;99.90
14993;DHT22;7592;51.088;13.732;2023-06-26T17:03:36;24.80;99.90
14993;DHT22;7592;51.088;13.732;2023-06-26T17:08:28;24.60;99.90
14993;DHT22;7592;51.088;13.732;2023-06-26T17:13:20;24.80;99.90
14993;DHT22;7592;51.088;13.732;2023-06-26T17:18:12;25.00;99.90
14993;DHT22;7592;51.088;13.732;2023-06-26T17:23:04;25.30;99.90
14993;DHT22;7592;51.088;13.732;2023-06-26T17:27:56;25.70;99.90
14993;DHT22;7592;51.088;13.732;2023-06-26T17:32:49;26.00;99.90
14993;DHT22;7592;51.088;13.732;2023-06-26T17:37:42;26.20;99.90
14993;DHT22;7592;51.088;13.732;2023-06-26T17:42:34;26.20;99.90
14993;DHT22;7592;51.088;13.732;2023-06-26T17:47:31;26.30;99.90
14993;DHT22;7592;51.088;13.732;2023-06-26T17:52:23;26.10;99.90
14993;DHT22;7592;51.088;13.732;2023-06-26T17:57:15;25.80;99.90
14993;DHT22;7592;51.088;13.732;2023-06-26T18:02:07;25.70;99.90
14993;DHT22;7592;51.088;13.732;2023-06-26T18:07:00;25.30;99.90
14993;DHT22;7592;51.088;13.732;2023-06-26T18:11:53;24.90;99.90
14993;DHT22;7592;51.088;13.732;2023-06-26T18:16:45;24.60;99.90
14993;DHT22;7592;51.088;13.732;2023-06-26T18:21:37;24.30;99.90
14993;DHT22;7592;51.088;13.732;2023-06-26T18:26:30;23.90;99.90
14993;DHT22;7592;51.088;13.732;2023-06-26T18:31:22;23.70;99.90
14993;DHT22;7592;51.088;13.732;2023-06-26T18:36:14;23.60;99.90
14993;DHT22;7592;51.088;13.732;2023-06-26T18:41:10;23.40;99.90
14993;DHT22;7592;51.088;13.732;2023-06-26T18:46:02;23.20;99.90
14993;DHT22;7592;51.088;13.732;2023-06-26T18:50:54;23.00;99.90
14993;DHT22;7592;51.088;13.732;2023-06-26T18:55:49;22.80;99.90
14993;DHT22;7592;51.088;13.732;2023-06-26T19:00:42;22.90;99.90
14993;DHT22;7592;51.088;13.732;2023-06-26T19:05:35;22.70;99.90
14993;DHT22;7592;51.088;13.732;2023-06-26T19:10:27;22.60;99.90
14993;DHT22;7592;51.088;13.732;2023-06-26T19:15:19;22.50;99.90
14993;DHT22;7592;51.088;13.732;2023-06-26T19:20:12;22.60;99.90
14993;DHT22;7592;51.088;13.732;2023-06-26T19:25:05;22.80;99.90
14993;DHT22;7592;51.088;13.732;2023-06-26T19:29:58;22.80;99.90
14993;DHT22;7592;51.088;13.732;2023-06-26T19:34:51;23.00;99.90
14993;DHT22;7592;51.088;13.732;2023-06-26T19:39:43;22.80;99.90
14993;DHT22;7592;51.088;13.732;2023-06-26T19:44:35;22.60;99.90
14993;DHT22;7592;51.088;13.732;2023-06-26T19:49:27;22.60;99.90
14993;DHT22;7592;51.088;13.732;2023-06-26T19:54:20;22.60;99.90
14993;DHT22;7592;51.088;13.732;2023-06-26T19:59:12;22.50;99.90
14993;DHT22;7592;51.088;13.732;2023-06-26T20:04:04;22.30;99.90
14993;DHT22;7592;51.088;13.732;2023-06-26T20:08:57;22.30;99.90
14993;DHT22;7592;51.088;13.732;2023-06-26T20:13:49;22.30;99.90
14993;DHT22;7592;51.088;13.732;2023-06-26T20:18:41;22.30;99.90
14993;DHT22;7592;51.088;13.732;2023-06-26T20:23:33;22.40;99.90
14993;DHT22;7592;51.088;13.732;2023-06-26T20:28:25;22.40;99.90
14993;DHT22;7592;51.088;13.732;2023-06-26T20:33:17;22.50;99.90
14993;DHT22;7592;51.088;13.732;2023-06-26T20:38:09;22.50;99.90
14993;DHT22;7592;51.088;13.732;2023-06-26T20:43:05;22.40;99.90
14993;DHT22;7592;51.088;13.732;2023-06-26T20:47:59;22.20;99.90
14993;DHT22;7592;51.088;13.732;2023-06-26T20:52:51;21.90;99.90
14993;DHT22;7592;51.088;13.732;2023-06-26T20:57:44;21.60;99.90
14993;DHT22;7592;51.088;13.732;2023-06-26T21:02:36;21.50;99.90
14993;DHT22;7592;51.088;13.732;2023-06-26T21:07:30;21.50;99.90
14993;DHT22;7592;51.088;13.732;2023-06-26T21:12:22;21.40;99.90
14993;DHT22;7592;51.088;13.732;2023-06-26T21:17:15;21.20;99.90
14993;DHT22;7592;51.088;13.732;2023-06-26T21:22:07;21.00;99.90
14993;DHT22;7592;51.088;13.732;2023-06-26T21:26:59;21.10;99.90
14993;DHT22;7592;51.088;13.732;2023-06-26T21:31:51;21.10;99.90
14993;DHT22;7592;51.088;13.732;2023-06-26T21:36:44;21.10;99.90
14993;DHT22;7592;51.088;13.732;2023-06-26T21:41:36;21.10;99.90
14993;DHT22;7592;51.088;13.732;2023-06-26T21:46:29;21.20;99.90
14993;DHT22;7592;51.088;13.732;2023-06-26T21:51:21;21.20;99.90
14993;DHT22;7592;51.088;13.732;2023-06-26T21:56:13;21.20;99.90
14993;DHT22;7592;51.088;13.732;2023-06-26T22:01:05;21.40;99.90
14993;DHT22;7592;51.088;13.732;2023-06-26T22:06:01;21.30;99.90
14993;DHT22;7592;51.088;13.732;2023-06-26T22:10:55;21.20;99.90
14993;DHT22;7592;51.088;13.732;2023-06-26T22:15:47;21.20;99.90
14993;DHT22;7592;51.088;13.732;2023-06-26T22:20:40;21.50;99.90
14993;DHT22;7592;51.088;13.732;2023-06-26T22:25:32;21.40;99.90
14993;DHT22;7592;51.088;13.732;2023-06-26T22:30:24;21.30;99.90
14993;DHT22;7592;51.088;13.732;2023-06-26T22:35:17;21.30;99.90
14993;DHT22;7592;51.088;13.732;2023-06-26T22:40:11;21.30;99.90
14993;DHT22;7592;51.088;13.732;2023-06-26T22:45:05;21.40;99.90
14993;DHT22;7592;51.088;13.732;2023-06-26T22:49:59;21.30;99.90
14993;DHT22;7592;51.088;13.732;2023-06-26T22:54:51;21.20;99.90
14993;DHT22;7592;51.088;13.732;2023-06-26T22:59:43;21.20;99.90
14993;DHT22;7592;51.088;13.732;2023-06-26T23:04:35;21.20;99.90
14993;DHT22;7592;51.088;13.732;2023-06-26T23:09:27;21.20;99.90
14993;DHT22;7592;51.088;13.732;2023-06-26T23:14:20;21.30;99.90
14993;DHT22;7592;51.088;13.732;2023-06-26T23:19:12;21.30;99.90
14993;DHT22;7592;51.088;13.732;2023-06-26T23:24:06;21.30;99.90
14993;DHT22;7592;51.088;13.732;2023-06-26T23:28:58;21.30;99.90
14993;DHT22;7592;51.088;13.732;2023-06-26T23:33:51;20.80;99.90
14993;DHT22;7592;51.088;13.732;2023-06-26T23:38:44;20.30;99.90
14993;DHT22;7592;51.088;13.732;2023-06-26T23:43:37;19.90;99.90
14993;DHT22;7592;51.088;13.732;2023-06-26T23:48:29;19.90;99.90
14993;DHT22;7592;51.088;13.732;2023-06-26T23:53:21;19.80;99.90
14993;DHT22;7592;51.088;13.732;2023-06-26T23:58:13;20.00;99.90
